Time;durP1;ratioP1;P1;durP2;ratioP2;P2;SDS_P1;SDS_P2;PMS_P1;PMS_P2;Temp;Humidity;BMP_temperature;BMP_pressure;BME280_temperature;BME280_humidity;BME280_pressure;Samples;Min_cycle;Max_cycle;Signal;HPM_P1;HPM_P2
2022/06/06 00:00:45;;;;;;;3.65;2.70;;;22.30;62.90;;;;;;5014377;28;20195;-67
2022/06/06 00:03:14;;;;;;;4.07;2.53;;;22.20;62.80;;;;;;5013051;28;20201;-67
2022/06/06 00:05:42;;;;;;;3.42;2.60;;;22.20;62.80;;;;;;5012802;28;20220;-67
2022/06/06 00:08:11;;;;;;;3.78;2.75;;;22.20;63.60;;;;;;5012664;28;20225;-67
2022/06/06 00:10:39;;;;;;;3.25;2.42;;;22.20;62.80;;;;;;5014047;28;20204;-67
2022/06/06 00:13:06;;;;;;;3.08;2.63;;;22.20;62.80;;;;;;5014001;28;20196;-67
2022/06/06 00:15:34;;;;;;;4.18;2.80;;;22.20;63.50;;;;;;5012726;28;20682;-67
2022/06/06 00:18:02;;;;;;;2.53;2.33;;;22.20;62.70;;;;;;5013832;28;20299;-67
2022/06/06 00:20:30;;;;;;;3.05;2.50;;;22.20;62.70;;;;;;5012604;28;20197;-67
2022/06/06 00:22:57;;;;;;;2.70;2.42;;;22.20;62.80;;;;;;5012702;28;20220;-67
2022/06/06 00:25:24;;;;;;;4.38;2.88;;;22.20;62.70;;;;;;5012602;28;20224;-67
2022/06/06 00:27:51;;;;;;;2.58;2.20;;;22.20;62.70;;;;;;5012490;28;20231;-67
2022/06/06 00:30:18;;;;;;;2.65;2.22;;;22.20;62.80;;;;;;5012607;28;20200;-67
2022/06/06 00:35:31;;;;;;;4.55;2.45;;;22.10;62.50;;;;;;5014224;28;20174;-67
2022/06/06 00:37:59;;;;;;;4.38;2.35;;;22.10;62.60;;;;;;5014953;28;20216;-67
2022/06/06 00:40:26;;;;;;;3.58;2.38;;;22.10;62.50;;;;;;5014096;28;20203;-67
2022/06/06 00:42:53;;;;;;;3.17;2.30;;;22.10;62.60;;;;;;5012975;28;20205;-67
2022/06/06 00:45:27;;;;;;;2.50;2.20;;;22.10;62.60;;;;;;5012677;28;20654;-67
2022/06/06 00:47:57;;;;;;;2.67;2.30;;;22.10;62.60;;;;;;5012703;28;20739;-67
2022/06/06 00:50:28;;;;;;;4.45;2.50;;;22.10;62.50;;;;;;5013761;28;20319;-67
2022/06/06 00:52:56;;;;;;;4.03;2.28;;;22.00;62.50;;;;;;5016355;28;20193;-67
2022/06/06 00:55:25;;;;;;;2.58;2.08;;;22.00;62.30;;;;;;5017201;28;20193;-67
2022/06/06 00:57:55;;;;;;;2.53;2.28;;;22.10;62.50;;;;;;5015444;28;20231;-68
2022/06/06 01:00:22;;;;;;;2.65;2.30;;;22.10;62.50;;;;;;5014186;28;20203;-67
2022/06/06 01:02:51;;;;;;;2.50;2.30;;;22.00;62.40;;;;;;5012371;28;20196;-66
2022/06/06 01:05:19;;;;;;;3.72;2.35;;;22.00;62.30;;;;;;5012082;28;20217;-67
2022/06/06 01:07:45;;;;;;;3.28;2.38;;;22.00;62.30;;;;;;5012261;28;20204;-67
2022/06/06 01:10:15;;;;;;;2.53;2.10;;;22.00;62.30;;;;;;5013382;28;20180;-67
2022/06/06 01:12:44;;;;;;;3.15;2.33;;;22.00;62.20;;;;;;5012178;28;20193;-67
2022/06/06 01:15:11;;;;;;;2.60;2.20;;;22.00;62.00;;;;;;5012120;28;20196;-67
2022/06/06 01:17:41;;;;;;;2.20;2.00;;;22.00;62.20;;;;;;5012132;28;20670;-66
2022/06/06 01:20:16;;;;;;;2.40;2.10;;;22.00;62.20;;;;;;5011914;28;20224;-67
2022/06/06 01:23:14;;;;;;;2.78;2.15;;;22.00;62.10;;;;;;5019899;28;20283;-67
2022/06/06 01:26:08;;;;;;;3.90;1.90;;;22.00;62.30;;;;;;5024013;28;20307;-67
2022/06/06 01:28:44;;;;;;;2.35;2.08;;;22.00;62.20;;;;;;5018440;28;20239;-67
2022/06/06 01:31:14;;;;;;;2.97;2.30;;;22.00;62.10;;;;;;5016269;28;20565;-67
2022/06/06 01:33:50;;;;;;;1.80;1.70;;;21.90;62.10;;;;;;5017406;28;20182;-67
2022/06/06 01:36:17;;;;;;;2.30;2.10;;;21.90;62.00;;;;;;5015738;28;20196;-67
2022/06/06 01:38:44;;;;;;;2.38;2.17;;;22.00;62.20;;;;;;5016760;28;20212;-67
2022/06/06 01:41:12;;;;;;;2.00;1.90;;;21.90;62.10;;;;;;5015657;28;20207;-67
2022/06/06 01:43:44;;;;;;;2.30;2.10;;;21.90;62.20;;;;;;5015888;28;20208;-67
2022/06/06 01:46:13;;;;;;;2.05;1.85;;;21.90;62.20;;;;;;5015934;28;20272;-67
2022/06/06 01:48:41;;;;;;;2.22;2.00;;;21.90;62.20;;;;;;5015337;28;20278;-67
2022/06/06 01:51:08;;;;;;;1.80;1.70;;;21.90;62.20;;;;;;5015161;28;20299;-67
2022/06/06 01:53:37;;;;;;;2.20;2.00;;;21.90;62.20;;;;;;5016172;28;20204;-67
2022/06/06 01:56:04;;;;;;;2.15;1.90;;;21.90;62.20;;;;;;5015507;28;20776;-67
2022/06/06 01:58:31;;;;;;;1.92;1.83;;;21.90;62.30;;;;;;5016665;28;20267;-67
2022/06/06 02:01:01;;;;;;;2.20;2.00;;;21.90;62.10;;;;;;5015225;28;20684;-67
2022/06/06 02:03:28;;;;;;;2.78;2.00;;;21.80;62.00;;;;;;5016893;28;20189;-67
2022/06/06 02:05:55;;;;;;;2.20;1.90;;;21.90;62.00;;;;;;5016223;28;20212;-67
2022/06/06 02:08:22;;;;;;;2.13;1.88;;;21.80;62.00;;;;;;5016384;28;20686;-67
2022/06/06 02:10:49;;;;;;;4.38;2.00;;;21.80;61.70;;;;;;5015054;28;20197;-67
2022/06/06 02:13:16;;;;;;;2.20;2.00;;;21.80;61.70;;;;;;5014940;28;20205;-67
2022/06/06 02:15:43;;;;;;;1.98;1.85;;;21.80;61.80;;;;;;5016155;28;20693;-67
2022/06/06 02:18:12;;;;;;;2.22;1.75;;;21.80;61.60;;;;;;5015970;28;20209;-66
2022/06/06 02:20:39;;;;;;;1.65;1.55;;;21.90;61.80;;;;;;5014844;28;20739;-67
2022/06/06 02:23:06;;;;;;;2.70;2.00;;;21.80;61.70;;;;;;5014766;28;20208;-67
2022/06/06 02:25:33;;;;;;;1.95;1.85;;;21.80;61.70;;;;;;5014733;28;20208;-67
2022/06/06 02:28:01;;;;;;;2.35;1.77;;;21.80;61.60;;;;;;5015029;28;20319;-64
2022/06/06 02:30:29;;;;;;;1.80;1.70;;;21.80;61.40;;;;;;5014678;28;20251;-67
2022/06/06 02:32:56;;;;;;;2.00;1.90;;;21.80;62.00;;;;;;5014900;28;20603;-67
2022/06/06 02:35:26;;;;;;;2.10;1.90;;;21.80;61.30;;;;;;5014687;28;20209;-67
2022/06/06 02:37:54;;;;;;;2.08;1.88;;;21.80;61.40;;;;;;5014613;28;20299;-67
2022/06/06 02:42:51;;;;;;;1.83;1.73;;;21.60;62.20;;;;;;4993582;28;20714;-70
2022/06/06 02:45:18;;;;;;;2.13;1.92;;;21.70;61.30;;;;;;4996143;28;20197;-70
2022/06/06 02:47:46;;;;;;;2.55;2.00;;;21.80;61.20;;;;;;5011021;28;20698;-70
2022/06/06 02:50:14;;;;;;;1.98;1.85;;;21.70;61.20;;;;;;5011079;28;20197;-71
2022/06/06 02:52:43;;;;;;;1.75;1.65;;;21.70;61.90;;;;;;5011225;28;20205;-70
2022/06/06 02:55:11;;;;;;;2.33;1.95;;;21.70;61.00;;;;;;4994732;28;20201;-70
2022/06/06 02:57:38;;;;;;;2.20;2.00;;;21.70;61.10;;;;;;5010811;28;20574;-70
2022/06/06 03:00:06;;;;;;;1.80;1.70;;;21.70;61.00;;;;;;5010963;28;20201;-70
2022/06/06 03:02:33;;;;;;;1.90;1.70;;;21.70;61.00;;;;;;5010805;28;20225;-70
2022/06/06 03:05:00;;;;;;;2.00;1.75;;;21.80;61.00;;;;;;5010782;28;20556;-70
2022/06/06 03:07:32;;;;;;;2.35;2.00;;;21.70;60.60;;;;;;5010693;28;20305;-70
2022/06/06 03:10:07;;;;;;;2.08;1.60;;;21.70;60.60;;;;;;5010747;28;20198;-70
2022/06/06 03:12:50;;;;;;;1.70;1.60;;;21.70;60.80;;;;;;4995592;28;20181;-70
2022/06/06 03:15:24;;;;;;;1.77;1.65;;;21.70;61.50;;;;;;4995756;28;20182;-70
2022/06/06 03:20:47;;;;;;;3.05;1.58;;;21.70;60.40;;;;;;4995784;28;20182;-70
2022/06/06 03:23:32;;;;;;;1.98;1.77;;;21.70;60.40;;;;;;4995529;28;20212;-70
2022/06/06 03:26:02;;;;;;;2.45;1.75;;;21.70;60.50;;;;;;5028636;28;20201;-71
2022/06/06 03:28:35;;;;;;;2.22;1.80;;;21.70;60.20;;;;;;5029409;28;20214;-70
2022/06/06 03:31:12;;;;;;;1.80;1.63;;;21.80;60.40;;;;;;5010806;28;20193;-69
2022/06/06 03:33:44;;;;;;;1.60;1.50;;;21.90;60.30;;;;;;5011650;28;20276;-70
2022/06/06 03:36:15;;;;;;;1.70;1.60;;;21.90;60.00;;;;;;5010553;28;20197;-70
2022/06/06 03:38:46;;;;;;;1.80;1.70;;;22.00;59.80;;;;;;5010237;28;20224;-69
2022/06/06 03:41:18;;;;;;;1.67;1.58;;;22.00;59.70;;;;;;5010466;28;20219;-70
2022/06/06 03:43:49;;;;;;;1.70;1.60;;;22.00;59.60;;;;;;5010586;28;20662;-70
2022/06/06 03:46:25;;;;;;;1.80;1.70;;;22.00;59.50;;;;;;5009761;28;20217;-70
2022/06/06 03:48:56;;;;;;;1.70;1.60;;;22.00;59.50;;;;;;5010152;28;20315;-70
2022/06/06 03:51:28;;;;;;;2.35;2.00;;;22.10;59.50;;;;;;5009940;28;20205;-70
2022/06/06 03:53:56;;;;;;;3.42;1.75;;;22.10;59.30;;;;;;4995057;28;20681;-70
2022/06/06 03:56:47;;;;;;;1.83;1.55;;;22.10;59.20;;;;;;5009977;28;20232;-70
2022/06/06 03:59:14;;;;;;;2.05;1.50;;;22.20;59.10;;;;;;5009926;28;20300;-70
2022/06/06 04:01:42;;;;;;;2.15;1.67;;;22.20;59.00;;;;;;5009813;28;20689;-70
2022/06/06 04:04:09;;;;;;;1.70;1.60;;;22.20;58.90;;;;;;5009918;28;20204;-70
2022/06/06 04:06:36;;;;;;;1.58;1.48;;;22.20;58.70;;;;;;5009791;28;20224;-70
2022/06/06 04:09:03;;;;;;;1.80;1.70;;;22.20;58.70;;;;;;5009764;28;20233;-71
2022/06/06 04:11:39;;;;;;;1.90;1.70;;;22.20;58.50;;;;;;4994864;28;20190;-70
2022/06/06 04:14:11;;;;;;;1.60;1.50;;;22.30;58.60;;;;;;5009635;28;20247;-69
2022/06/06 04:16:45;;;;;;;1.80;1.70;;;22.30;58.30;;;;;;5009600;28;20208;-70
2022/06/06 04:19:17;;;;;;;1.90;1.80;;;22.30;58.40;;;;;;4994455;28;20219;-70
2022/06/06 04:21:48;;;;;;;1.70;1.60;;;22.30;58.30;;;;;;5010580;28;20527;-70
2022/06/06 04:24:25;;;;;;;1.70;1.60;;;22.30;58.20;;;;;;4994462;28;20624;-70
2022/06/06 04:26:57;;;;;;;1.67;1.58;;;22.30;58.20;;;;;;5009463;28;20217;-70
2022/06/06 04:29:29;;;;;;;1.73;1.63;;;22.40;58.20;;;;;;5009448;28;20225;-70
2022/06/06 04:31:58;;;;;;;1.70;1.60;;;22.40;58.20;;;;;;4994784;28;20178;-70
2022/06/06 04:34:28;;;;;;;1.95;1.85;;;22.40;58.20;;;;;;4994246;28;20193;-70
2022/06/06 04:36:56;;;;;;;1.75;1.50;;;22.40;58.20;;;;;;5009389;28;20204;-70
2022/06/06 04:39:26;;;;;;;2.28;1.67;;;22.40;58.20;;;;;;4994152;28;20768;-70
2022/06/06 04:41:56;;;;;;;1.70;1.60;;;22.40;58.70;;;;;;4994497;28;20197;-69
2022/06/06 04:44:26;;;;;;;2.58;1.58;;;22.50;57.90;;;;;;4994329;28;20185;-70
2022/06/06 04:46:55;;;;;;;1.75;1.65;;;22.70;57.70;;;;;;5009286;28;20209;-70
2022/06/06 04:49:23;;;;;;;1.80;1.70;;;22.90;57.30;;;;;;5009234;28;20256;-70
2022/06/06 04:51:51;;;;;;;1.60;1.50;;;23.00;56.90;;;;;;5009122;28;20249;-70
2022/06/06 04:54:19;;;;;;;1.50;1.40;;;23.20;56.60;;;;;;5009186;28;20201;-70
2022/06/06 04:56:46;;;;;;;1.67;1.58;;;23.30;56.40;;;;;;4994059;28;20182;-70
2022/06/06 04:59:14;;;;;;;1.73;1.60;;;23.30;56.20;;;;;;5011629;28;20283;-70
2022/06/06 05:01:42;;;;;;;2.45;1.52;;;23.50;55.90;;;;;;5013131;28;20248;-70
2022/06/06 05:04:09;;;;;;;3.00;1.50;;;23.50;55.50;;;;;;4998248;28;20200;-70
2022/06/06 05:06:55;;;;;;;1.50;1.40;;;23.70;55.20;;;;;;5013094;28;20239;-70
2022/06/06 05:09:31;;;;;;;1.60;1.50;;;23.80;55.00;;;;;;5013043;28;20583;-70
2022/06/06 05:12:04;;;;;;;1.60;1.50;;;23.80;54.90;;;;;;5012923;28;20197;-68
2022/06/06 05:14:46;;;;;;;1.65;1.40;;;23.80;54.80;;;;;;5013191;28;20201;-70
2022/06/06 05:17:24;;;;;;;1.75;1.65;;;23.90;54.80;;;;;;5020479;28;20234;-70
2022/06/06 05:20:13;;;;;;;1.77;1.67;;;24.00;54.50;;;;;;5027810;28;20213;-71
2022/06/06 05:22:59;;;;;;;1.80;1.70;;;24.10;54.40;;;;;;5030348;28;20210;-70
2022/06/06 05:25:39;;;;;;;2.55;1.48;;;24.00;54.40;;;;;;5013284;28;20240;-70
2022/06/06 05:28:22;;;;;;;1.80;1.70;;;24.10;54.50;;;;;;4997851;28;20224;-70
2022/06/06 05:30:54;;;;;;;1.70;1.60;;;24.10;54.40;;;;;;5012822;28;20576;-70
2022/06/06 05:33:25;;;;;;;1.88;1.67;;;24.10;54.10;;;;;;5012477;28;20555;-70
2022/06/06 05:36:09;;;;;;;1.60;1.50;;;24.20;54.20;;;;;;5012494;28;20201;-70
2022/06/06 05:38:55;;;;;;;1.40;1.30;;;24.10;54.20;;;;;;5012450;28;20304;-70
2022/06/06 05:41:27;;;;;;;1.45;1.45;;;24.10;54.30;;;;;;4995651;28;20213;-70
2022/06/06 05:43:57;;;;;;;1.70;1.60;;;24.00;54.30;;;;;;5012387;28;20197;-70
2022/06/06 05:46:38;;;;;;;1.70;1.60;;;24.00;54.40;;;;;;5012587;28;20205;-70
2022/06/06 05:49:32;;;;;;;1.73;1.63;;;24.00;54.60;;;;;;5012207;28;20225;-70
2022/06/06 05:52:08;;;;;;;1.52;1.40;;;24.00;54.40;;;;;;5012259;28;20206;-70
2022/06/06 05:54:50;;;;;;;1.70;1.60;;;24.10;54.10;;;;;;5012212;28;20224;-70
2022/06/06 05:57:51;;;;;;;1.50;1.40;;;24.20;54.10;;;;;;5012073;28;20295;-70
2022/06/06 06:00:19;;;;;;;1.60;1.50;;;24.30;53.60;;;;;;4977253;28;20251;-70
2022/06/06 06:03:03;;;;;;;1.63;1.50;;;24.40;53.50;;;;;;5012019;28;20764;-69
2022/06/06 06:05:34;;;;;;;2.17;1.70;;;24.50;53.30;;;;;;5011948;28;20185;-70
2022/06/06 06:08:09;;;;;;;2.22;1.90;;;24.50;53.30;;;;;;4996583;28;20633;-70
2022/06/06 06:10:42;;;;;;;1.50;1.42;;;24.40;53.30;;;;;;5011499;28;20199;-70
2022/06/06 06:13:32;;;;;;;2.08;1.45;;;24.50;53.30;;;;;;5011878;28;20564;-70
2022/06/06 06:16:00;;;;;;;1.58;1.48;;;24.60;53.10;;;;;;4996649;28;20188;-70
2022/06/06 06:18:31;;;;;;;1.75;1.65;;;24.70;52.80;;;;;;4996722;28;20589;-70
2022/06/06 06:21:00;;;;;;;1.52;1.42;;;24.80;52.60;;;;;;5011710;28;20221;-70
2022/06/06 06:23:32;;;;;;;1.55;1.45;;;24.90;52.50;;;;;;4996750;28;20573;-70
2022/06/06 06:26:00;;;;;;;1.80;1.70;;;24.90;52.40;;;;;;5011608;28;20626;-70
2022/06/06 06:28:28;;;;;;;2.33;1.60;;;24.90;52.30;;;;;;5011363;28;20233;-70
2022/06/06 06:31:01;;;;;;;1.60;1.50;;;24.90;53.00;;;;;;4996344;28;20697;-70
2022/06/06 06:33:42;;;;;;;1.80;1.70;;;24.90;52.70;;;;;;5011514;28;20197;-70
2022/06/06 06:36:16;;;;;;;1.60;1.50;;;24.80;52.60;;;;;;4996227;28;20201;-70
2022/06/06 06:38:52;;;;;;;2.35;1.60;;;24.80;52.60;;;;;;5011204;28;20217;-70
2022/06/06 06:41:24;;;;;;;1.40;1.40;;;24.70;52.60;;;;;;5011291;28;20586;-70
2022/06/06 06:43:58;;;;;;;1.70;1.58;;;24.80;52.60;;;;;;5011316;28;20284;-70
2022/06/06 06:46:28;;;;;;;1.75;1.65;;;24.80;52.50;;;;;;5011363;28;20209;-70
2022/06/06 06:49:01;;;;;;;1.50;1.40;;;24.80;52.50;;;;;;5011071;28;20240;-70
2022/06/06 06:51:37;;;;;;;1.50;1.42;;;24.80;52.50;;;;;;5011850;28;20190;-70
2022/06/06 06:54:12;;;;;;;1.60;1.50;;;24.80;52.50;;;;;;5011018;28;20200;-71
2022/06/06 06:56:48;;;;;;;1.63;1.52;;;24.90;52.30;;;;;;5011152;28;20211;-70
2022/06/06 06:59:18;;;;;;;1.58;1.48;;;24.90;52.20;;;;;;5011061;28;20797;-70
2022/06/06 07:10:13;;;;;;;1.45;1.35;;;25.10;51.70;;;;;;4995595;28;20177;-70
2022/06/06 07:13:10;;;;;;;1.65;1.55;;;25.10;51.50;;;;;;5010671;28;20190;-70
2022/06/06 07:15:42;;;;;;;1.50;1.40;;;25.20;51.40;;;;;;4985078;28;20201;-70
2022/06/06 07:18:10;;;;;;;1.80;1.70;;;25.30;51.20;;;;;;5010707;28;20728;-70
2022/06/06 07:20:39;;;;;;;1.48;1.48;;;25.40;51.10;;;;;;5009750;28;20662;-70
2022/06/06 07:23:09;;;;;;;1.50;1.40;;;25.40;51.10;;;;;;5010799;28;20208;-70
2022/06/06 07:25:38;;;;;;;1.65;1.55;;;25.40;50.80;;;;;;4995477;28;20201;-70
2022/06/06 07:28:06;;;;;;;1.60;1.50;;;25.40;50.80;;;;;;5011175;28;20601;-70
2022/06/06 07:30:36;;;;;;;1.40;1.30;;;25.40;50.60;;;;;;4995229;28;20194;-70
2022/06/06 07:33:15;;;;;;;1.58;1.48;;;25.50;50.50;;;;;;5010347;28;20304;-70
2022/06/06 07:35:48;;;;;;;1.52;1.42;;;25.50;50.60;;;;;;5010567;28;20199;-70
2022/06/06 07:38:22;;;;;;;1.48;1.38;;;25.50;50.60;;;;;;5010162;28;20209;-71
2022/06/06 07:40:59;;;;;;;2.28;1.60;;;25.50;50.60;;;;;;5010010;28;20212;-70
2022/06/06 07:43:53;;;;;;;1.50;1.40;;;25.40;50.60;;;;;;4995068;28;20181;-70
2022/06/06 07:46:27;;;;;;;1.20;1.20;;;25.40;50.70;;;;;;4989294;28;20201;-70
2022/06/06 07:48:58;;;;;;;2.40;1.50;;;25.40;50.70;;;;;;5010603;28;20235;-70
2022/06/06 07:51:31;;;;;;;1.40;1.40;;;25.40;51.20;;;;;;5010031;28;20197;-70
2022/06/06 07:54:04;;;;;;;1.33;1.30;;;25.50;50.60;;;;;;5009909;28;20651;-70
2022/06/06 07:56:35;;;;;;;1.55;1.40;;;25.60;50.50;;;;;;4994982;28;20177;-70
2022/06/06 07:59:07;;;;;;;1.50;1.40;;;25.70;50.20;;;;;;5010006;28;20711;-70
2022/06/06 08:01:38;;;;;;;1.55;1.45;;;25.80;49.90;;;;;;5009829;28;20256;-70
2022/06/06 08:04:09;;;;;;;1.40;1.30;;;26.00;49.50;;;;;;5010636;28;20598;-70
2022/06/06 08:06:42;;;;;;;1.52;1.42;;;26.10;49.40;;;;;;5009832;28;20197;-70
2022/06/06 08:09:23;;;;;;;1.30;1.30;;;26.10;49.20;;;;;;4994679;28;20220;-71
2022/06/06 08:12:05;;;;;;;1.50;1.40;;;26.10;49.20;;;;;;5010248;28;20193;-70
2022/06/06 08:14:41;;;;;;;1.35;1.35;;;26.10;49.40;;;;;;4996598;28;20184;-70
2022/06/06 08:17:12;;;;;;;1.67;1.58;;;26.00;49.40;;;;;;5010114;28;20267;-70
2022/06/06 08:19:51;;;;;;;1.35;1.30;;;26.00;49.40;;;;;;5009776;28;20217;-70
2022/06/06 08:22:19;;;;;;;1.58;1.48;;;26.00;49.50;;;;;;4994604;28;20195;-70
2022/06/06 08:24:48;;;;;;;1.55;1.50;;;25.90;49.30;;;;;;4994826;28;20193;-70
2022/06/06 08:27:16;;;;;;;1.60;1.50;;;26.00;49.50;;;;;;5009393;28;20288;-70
2022/06/06 08:29:44;;;;;;;1.52;1.42;;;26.10;49.30;;;;;;5009457;28;20597;-70
2022/06/06 08:32:11;;;;;;;1.58;1.48;;;26.20;49.10;;;;;;5009233;28;20197;-70
2022/06/06 08:34:38;;;;;;;1.40;1.40;;;26.30;48.80;;;;;;5009568;28;20204;-70
2022/06/06 08:37:35;;;;;;;1.52;1.42;;;26.40;48.40;;;;;;5009586;28;20223;-70
2022/06/06 08:40:15;;;;;;;1.20;1.20;;;26.60;48.20;;;;;;5008560;28;20296;-70
2022/06/06 08:42:49;;;;;;;1.30;1.30;;;26.70;47.90;;;;;;5009342;28;20207;-70
2022/06/06 08:45:25;;;;;;;1.52;1.30;;;26.80;47.70;;;;;;5009146;28;20193;-70
2022/06/06 08:48:02;;;;;;;1.35;1.30;;;26.90;47.60;;;;;;5009346;28;20322;-70
2022/06/06 08:50:46;;;;;;;1.25;1.25;;;27.00;47.50;;;;;;5009340;28;20604;-70
2022/06/06 08:53:51;;;;;;;1.50;1.40;;;27.10;47.20;;;;;;5009719;28;20196;-69
2022/06/06 08:56:46;;;;;;;1.35;1.25;;;27.10;47.00;;;;;;4994436;28;20188;-70
2022/06/06 08:59:33;;;;;;;1.92;1.73;;;27.20;46.90;;;;;;5009322;28;20216;-71
2022/06/06 09:02:25;;;;;;;1.88;1.77;;;27.10;46.20;;;;;;5009076;28;20193;-71
2022/06/06 09:05:05;;;;;;;5.18;2.40;;;27.10;46.40;;;;;;5009032;28;20211;-71
2022/06/06 09:08:03;;;;;;;2.97;2.22;;;27.10;46.10;;;;;;4993652;28;20173;-71
2022/06/06 09:10:48;;;;;;;2.53;2.33;;;27.00;45.80;;;;;;4969416;28;20732;-71
2022/06/06 09:13:38;;;;;;;2.50;2.30;;;27.00;45.70;;;;;;5009365;28;20205;-70
2022/06/06 09:16:49;;;;;;;2.40;2.20;;;27.00;45.70;;;;;;4994163;28;20181;-71
2022/06/06 09:19:45;;;;;;;3.42;2.22;;;27.10;45.30;;;;;;5009401;28;20243;-70
2022/06/06 09:22:27;;;;;;;3.42;2.08;;;27.10;44.80;;;;;;5009101;28;20255;-71
2022/06/06 09:25:13;;;;;;;3.63;2.17;;;27.00;44.80;;;;;;5002257;28;20181;-70
2022/06/06 09:28:03;;;;;;;2.17;1.98;;;26.80;44.10;;;;;;5022816;28;20197;-71
2022/06/06 09:31:00;;;;;;;2.60;2.10;;;26.70;43.70;;;;;;4995987;28;20177;-70
2022/06/06 09:33:51;;;;;;;3.05;2.20;;;26.50;43.30;;;;;;4977568;28;20768;-71
2022/06/06 09:36:23;;;;;;;3.45;2.00;;;26.40;43.60;;;;;;4980518;28;20196;-70
2022/06/06 09:39:08;;;;;;;3.40;2.00;;;26.40;43.80;;;;;;4993851;28;20295;-70
2022/06/06 09:41:40;;;;;;;3.58;1.70;;;26.30;43.60;;;;;;5008016;28;20208;-71
2022/06/06 09:44:18;;;;;;;2.33;2.20;;;26.30;43.90;;;;;;5009457;28;20690;-71
2022/06/06 09:47:13;;;;;;;2.63;2.20;;;26.40;44.20;;;;;;4997442;28;20187;-71
2022/06/06 09:50:18;;;;;;;3.40;2.33;;;26.50;44.60;;;;;;4996878;28;20225;-70
2022/06/06 09:53:18;;;;;;;1.98;1.73;;;26.60;43.90;;;;;;5012071;28;20296;-71
2022/06/06 09:59:51;;;;;;;2.80;1.88;;;26.60;43.00;;;;;;4996956;28;20700;-71
2022/06/06 10:02:52;;;;;;;2.30;1.85;;;26.40;43.10;;;;;;5012077;28;20558;-70
2022/06/06 10:05:46;;;;;;;1.88;1.77;;;26.30;43.10;;;;;;5012393;28;20196;-70
2022/06/06 10:08:49;;;;;;;2.83;1.90;;;26.30;43.00;;;;;;5012898;28;20217;-70
2022/06/06 10:11:29;;;;;;;2.10;1.90;;;26.30;43.30;;;;;;5012208;28;20243;-71
2022/06/06 10:14:03;;;;;;;2.20;2.00;;;26.40;43.20;;;;;;4997126;28;20273;-72
2022/06/06 10:16:51;;;;;;;3.40;1.70;;;26.40;43.40;;;;;;5012486;28;20704;-71
2022/06/06 10:19:26;;;;;;;2.22;1.80;;;26.40;43.90;;;;;;5011922;28;20221;-71
2022/06/06 10:22:04;;;;;;;2.20;2.00;;;26.30;44.00;;;;;;5012033;28;20197;-71
2022/06/06 10:24:45;;;;;;;1.83;1.73;;;26.10;43.70;;;;;;5011805;28;20201;-71
2022/06/06 10:27:16;;;;;;;2.50;2.17;;;26.10;44.40;;;;;;4996522;28;20181;-71
2022/06/06 10:30:13;;;;;;;2.67;2.10;;;25.90;44.50;;;;;;5011456;28;20259;-71
2022/06/06 10:33:11;;;;;;;1.92;1.83;;;25.90;44.80;;;;;;5011395;28;20193;-71
2022/06/06 10:35:50;;;;;;;2.10;1.90;;;25.80;45.40;;;;;;4998630;28;20664;-71
2022/06/06 10:38:31;;;;;;;1.73;1.63;;;25.80;45.30;;;;;;5011792;28;20223;-71
2022/06/06 10:41:02;;;;;;;1.85;1.75;;;25.90;45.20;;;;;;5011756;28;20215;-72
2022/06/06 10:43:39;;;;;;;2.30;2.10;;;26.00;45.10;;;;;;5011342;28;20584;-71
2022/06/06 10:46:11;;;;;;;2.50;2.03;;;26.10;44.80;;;;;;5011116;28;20201;-71
2022/06/06 10:48:45;;;;;;;2.53;1.92;;;26.20;44.70;;;;;;5011152;28;20225;-71
2022/06/06 10:51:41;;;;;;;2.10;1.90;;;26.20;44.90;;;;;;4996274;28;20219;-71
2022/06/06 10:54:26;;;;;;;3.40;1.98;;;26.20;45.80;;;;;;5011423;28;20209;-72
2022/06/06 10:57:08;;;;;;;2.25;2.00;;;26.20;44.70;;;;;;4995923;28;20280;-73
2022/06/06 11:00:14;;;;;;;3.65;2.13;;;26.10;44.70;;;;;;5011045;28;20592;-71
2022/06/06 11:03:13;;;;;;;2.45;1.90;;;26.00;45.10;;;;;;5011603;28;20200;-71
2022/06/06 11:06:04;;;;;;;2.25;2.08;;;25.90;45.00;;;;;;5012591;28;20621;-72
2022/06/06 11:08:42;;;;;;;3.00;2.00;;;26.00;44.80;;;;;;4976634;28;20233;-71
2022/06/06 11:11:52;;;;;;;2.40;2.10;;;25.90;44.70;;;;;;5010786;28;20203;-71
2022/06/06 11:14:25;;;;;;;2.05;1.95;;;25.90;44.40;;;;;;4993405;28;20201;-71
2022/06/06 11:17:31;;;;;;;1.90;1.77;;;25.90;43.90;;;;;;5011564;28;20561;-72
2022/06/06 11:20:27;;;;;;;2.10;1.90;;;25.90;44.60;;;;;;5010615;28;20208;-71
2022/06/06 11:22:56;;;;;;;2.20;2.00;;;25.90;44.50;;;;;;5010616;28;20239;-67
2022/06/06 11:25:24;;;;;;;3.40;1.95;;;25.90;45.00;;;;;;5010452;28;20251;-67
2022/06/06 11:28:31;;;;;;;3.10;1.83;;;25.90;44.60;;;;;;5010122;28;20192;-67
2022/06/06 11:31:28;;;;;;;2.20;2.00;;;25.80;44.70;;;;;;4982404;28;20193;-67
2022/06/06 11:34:28;;;;;;;2.25;2.05;;;25.80;44.60;;;;;;5010615;28;20197;-70
2022/06/06 11:37:16;;;;;;;2.22;2.00;;;25.80;45.20;;;;;;5010324;28;20208;-70
2022/06/06 11:40:23;;;;;;;3.63;2.00;;;25.80;44.90;;;;;;5010043;28;20217;-70
2022/06/06 11:43:12;;;;;;;3.28;2.00;;;25.80;44.70;;;;;;5010320;28;20203;-67
2022/06/06 11:46:05;;;;;;;1.90;1.80;;;25.80;44.70;;;;;;5010030;28;20204;-67
2022/06/06 11:48:46;;;;;;;2.30;2.10;;;25.70;45.00;;;;;;4995317;28;20217;-67
2022/06/06 11:51:37;;;;;;;2.85;2.30;;;25.70;44.90;;;;;;5010932;28;20253;-71
2022/06/06 11:54:26;;;;;;;3.08;2.17;;;25.60;44.70;;;;;;5010699;28;20216;-67
2022/06/06 11:57:35;;;;;;;2.00;1.90;;;25.60;45.00;;;;;;5010364;28;20252;-71
2022/06/06 12:00:17;;;;;;;2.67;2.03;;;25.60;44.60;;;;;;5010223;28;20211;-71
2022/06/06 12:03:10;;;;;;;2.67;1.90;;;25.60;44.90;;;;;;5009975;28;20207;-67
2022/06/06 12:05:52;;;;;;;2.25;2.05;;;25.60;44.70;;;;;;4995219;28;20212;-68
2022/06/06 12:08:58;;;;;;;2.08;1.95;;;25.60;44.60;;;;;;5009290;28;20275;-67
2022/06/06 12:12:02;;;;;;;2.33;2.13;;;25.60;44.60;;;;;;4937949;29;20206;-66
2022/06/06 12:15:15;;;;;;;2.03;1.90;;;25.60;44.70;;;;;;4954794;29;20202;-71
2022/06/06 12:17:56;;;;;;;2.20;2.00;;;25.60;45.10;;;;;;4996466;28;20232;-71
2022/06/06 12:21:09;;;;;;;3.80;2.10;;;25.50;45.00;;;;;;4996915;28;20177;-71
2022/06/06 12:23:45;;;;;;;3.10;2.00;;;25.50;45.60;;;;;;4942846;28;20230;-72
2022/06/06 12:26:38;;;;;;;2.10;2.00;;;25.40;45.00;;;;;;5010682;28;20185;-70
2022/06/06 12:29:36;;;;;;;2.47;2.00;;;25.40;44.60;;;;;;5010526;28;20217;-73
2022/06/06 12:32:21;;;;;;;2.08;1.98;;;25.40;45.40;;;;;;5010911;28;20197;-72
2022/06/06 12:34:50;;;;;;;3.65;1.95;;;25.40;45.30;;;;;;4994679;28;20182;-68
2022/06/06 12:37:20;;;;;;;2.42;2.00;;;25.30;44.60;;;;;;4994592;28;20712;-67
2022/06/06 12:39:55;;;;;;;2.45;2.10;;;25.40;44.90;;;;;;5010178;28;20307;-71
2022/06/06 12:42:39;;;;;;;2.08;1.98;;;25.40;45.00;;;;;;4994905;28;20562;-71
2022/06/06 12:45:29;;;;;;;1.90;1.80;;;25.40;45.10;;;;;;5011195;28;20288;-71
2022/06/06 12:48:07;;;;;;;2.83;2.10;;;25.40;45.00;;;;;;5005006;28;20287;-72
2022/06/06 12:50:42;;;;;;;2.53;2.22;;;25.50;45.10;;;;;;5009949;28;20221;-71
2022/06/06 12:53:45;;;;;;;1.88;1.77;;;25.50;45.70;;;;;;4994438;28;20189;-71
2022/06/06 12:56:23;;;;;;;2.10;1.92;;;25.50;44.80;;;;;;4990883;28;20209;-71
2022/06/06 12:59:19;;;;;;;2.50;1.90;;;25.60;45.20;;;;;;4993983;28;20300;-67
2022/06/06 13:01:54;;;;;;;2.22;2.00;;;25.60;44.80;;;;;;5008907;28;20200;-67
2022/06/06 13:04:35;;;;;;;1.83;1.73;;;25.60;44.60;;;;;;5009338;28;20184;-67
2022/06/06 13:07:11;;;;;;;2.10;2.00;;;25.60;44.60;;;;;;5009578;28;20246;-72
2022/06/06 13:09:56;;;;;;;2.70;2.10;;;25.60;44.70;;;;;;5009024;28;20223;-71
2022/06/06 13:12:31;;;;;;;1.98;1.88;;;25.60;44.40;;;;;;5009664;28;20189;-70
2022/06/06 13:15:10;;;;;;;2.35;2.15;;;25.60;44.10;;;;;;5010177;28;20196;-67
2022/06/06 13:17:43;;;;;;;2.05;1.90;;;25.60;44.20;;;;;;4996195;28;20190;-68
2022/06/06 13:20:20;;;;;;;2.10;1.70;;;25.60;43.80;;;;;;5016500;28;20192;-71
2022/06/06 13:23:08;;;;;;;1.95;1.85;;;25.60;44.20;;;;;;5001667;28;20188;-70
2022/06/06 13:25:45;;;;;;;1.90;1.80;;;25.60;43.20;;;;;;4995345;28;20295;-70
2022/06/06 13:28:13;;;;;;;2.20;2.00;;;25.60;43.30;;;;;;4998165;28;20267;-70
2022/06/06 13:30:54;;;;;;;2.58;2.00;;;25.50;43.10;;;;;;5013291;28;20248;-71
2022/06/06 13:33:33;;;;;;;2.05;1.90;;;25.50;43.20;;;;;;4997927;28;20199;-70
2022/06/06 13:36:05;;;;;;;2.92;1.85;;;25.50;43.30;;;;;;5013077;28;20599;-71
2022/06/06 13:38:41;;;;;;;2.13;1.92;;;25.40;43.80;;;;;;5012600;28;20239;-66
2022/06/06 13:41:15;;;;;;;2.10;1.90;;;25.40;44.00;;;;;;5012606;28;20673;-67
2022/06/06 13:43:58;;;;;;;2.10;1.90;;;25.40;44.00;;;;;;4996544;28;20610;-66
2022/06/06 13:46:48;;;;;;;2.20;1.77;;;25.40;44.00;;;;;;5013162;28;20677;-67
2022/06/06 13:49:57;;;;;;;2.35;1.83;;;25.30;44.30;;;;;;5012664;28;20229;-67
2022/06/06 13:52:32;;;;;;;2.05;1.85;;;25.30;44.40;;;;;;4961935;28;20208;-71
2022/06/06 13:55:23;;;;;;;2.40;2.17;;;25.30;44.50;;;;;;5012513;28;20200;-72
2022/06/06 13:57:55;;;;;;;1.92;1.83;;;25.20;44.70;;;;;;5012602;28;20228;-68
2022/06/06 14:00:25;;;;;;;2.08;1.98;;;25.20;44.60;;;;;;5013328;28;20193;-67